sensor_id;sensor_type;location;lat;lon;timestamp;pressure;altitude;pressure_sealevel;temperature
82778;BMP280;72510;45.128;20.734;2024-01-15T00:06:49;99551.47;;;1.56
82778;BMP280;72510;45.128;20.734;2024-01-15T00:16:50;99550.53;;;1.13
82778;BMP280;72510;45.128;20.734;2024-01-15T00:26:52;99550.56;;;0.93
82778;BMP280;72510;45.128;20.734;2024-01-15T00:36:54;99549.38;;;0.98
82778;BMP280;72510;45.128;20.734;2024-01-15T00:46:55;99541.28;;;0.72
82778;BMP280;72510;45.128;20.734;2024-01-15T00:56:57;99535.91;;;0.59
82778;BMP280;72510;45.128;20.734;2024-01-15T01:06:58;99525.25;;;0.86
82778;BMP280;72510;45.128;20.734;2024-01-15T01:16:59;99515.78;;;0.92
82778;BMP280;72510;45.128;20.734;2024-01-15T01:27:01;99511.34;;;1.06
82778;BMP280;72510;45.128;20.734;2024-01-15T01:37:02;99497.84;;;1.07
82778;BMP280;72510;45.128;20.734;2024-01-15T01:47:04;99470.56;;;0.88
82778;BMP280;72510;45.128;20.734;2024-01-15T01:57:05;99478.81;;;0.70
82778;BMP280;72510;45.128;20.734;2024-01-15T02:07:07;99441.34;;;0.53
82778;BMP280;72510;45.128;20.734;2024-01-15T02:17:10;99440.97;;;0.35
82778;BMP280;72510;45.128;20.734;2024-01-15T02:27:12;99426.31;;;0.37
82778;BMP280;72510;45.128;20.734;2024-01-15T02:37:13;99423.03;;;0.33
82778;BMP280;72510;45.128;20.734;2024-01-15T02:47:18;99419.44;;;0.27
82778;BMP280;72510;45.128;20.734;2024-01-15T02:57:22;99408.31;;;0.23
82778;BMP280;72510;45.128;20.734;2024-01-15T03:07:24;99386.97;;;0.25
82778;BMP280;72510;45.128;20.734;2024-01-15T03:17:27;99353.03;;;0.21
82778;BMP280;72510;45.128;20.734;2024-01-15T03:27:29;99352.88;;;0.28
82778;BMP280;72510;45.128;20.734;2024-01-15T03:37:30;99330.38;;;0.31
82778;BMP280;72510;45.128;20.734;2024-01-15T03:47:32;99320.69;;;0.44
82778;BMP280;72510;45.128;20.734;2024-01-15T03:57:34;99298.13;;;0.50
82778;BMP280;72510;45.128;20.734;2024-01-15T04:07:35;99298.28;;;0.60
82778;BMP280;72510;45.128;20.734;2024-01-15T04:17:37;99270.44;;;0.66
82778;BMP280;72510;45.128;20.734;2024-01-15T04:27:38;99247.59;;;0.66
82778;BMP280;72510;45.128;20.734;2024-01-15T04:37:40;99225.31;;;0.74
82778;BMP280;72510;45.128;20.734;2024-01-15T04:47:41;99220.00;;;0.78
82778;BMP280;72510;45.128;20.734;2024-01-15T04:57:49;99217.75;;;0.93
82778;BMP280;72510;45.128;20.734;2024-01-15T05:07:52;99209.75;;;1.13
82778;BMP280;72510;45.128;20.734;2024-01-15T05:17:59;99238.09;;;1.31
82778;BMP280;72510;45.128;20.734;2024-01-15T05:28:00;99222.69;;;1.46
82778;BMP280;72510;45.128;20.734;2024-01-15T05:38:02;99204.00;;;1.44
82778;BMP280;72510;45.128;20.734;2024-01-15T05:48:07;99172.22;;;1.42
82778;BMP280;72510;45.128;20.734;2024-01-15T05:58:09;99164.88;;;1.49
82778;BMP280;72510;45.128;20.734;2024-01-15T06:08:10;99156.69;;;1.47
82778;BMP280;72510;45.128;20.734;2024-01-15T06:18:12;99166.75;;;1.49
82778;BMP280;72510;45.128;20.734;2024-01-15T06:28:13;99162.78;;;1.57
82778;BMP280;72510;45.128;20.734;2024-01-15T06:38:15;99153.31;;;1.60
82778;BMP280;72510;45.128;20.734;2024-01-15T06:48:16;99152.72;;;1.56
82778;BMP280;72510;45.128;20.734;2024-01-15T06:58:17;99137.59;;;1.73
82778;BMP280;72510;45.128;20.734;2024-01-15T07:08:18;99156.63;;;1.99
82778;BMP280;72510;45.128;20.734;2024-01-15T07:18:21;99171.72;;;2.20
82778;BMP280;72510;45.128;20.734;2024-01-15T07:28:23;99158.75;;;2.26
82778;BMP280;72510;45.128;20.734;2024-01-15T07:38:24;99182.59;;;2.32
82778;BMP280;72510;45.128;20.734;2024-01-15T07:48:25;99162.78;;;2.40
82778;BMP280;72510;45.128;20.734;2024-01-15T07:58:27;99165.75;;;2.64
82778;BMP280;72510;45.128;20.734;2024-01-15T08:08:28;99170.13;;;2.89
82778;BMP280;72510;45.128;20.734;2024-01-15T08:18:29;99171.19;;;3.01
82778;BMP280;72510;45.128;20.734;2024-01-15T08:28:32;99165.81;;;3.04
82778;BMP280;72510;45.128;20.734;2024-01-15T08:38:34;99162.78;;;3.15
82778;BMP280;72510;45.128;20.734;2024-01-15T08:48:35;99143.28;;;3.44
82778;BMP280;72510;45.128;20.734;2024-01-15T08:58:36;99145.56;;;3.83
82778;BMP280;72510;45.128;20.734;2024-01-15T09:08:37;99159.31;;;4.24
82778;BMP280;72510;45.128;20.734;2024-01-15T09:18:39;99163.97;;;4.47
82778;BMP280;72510;45.128;20.734;2024-01-15T09:28:43;99139.28;;;4.17
82778;BMP280;72510;45.128;20.734;2024-01-15T09:38:44;99132.81;;;4.18
82778;BMP280;72510;45.128;20.734;2024-01-15T09:48:46;99119.22;;;4.29
82778;BMP280;72510;45.128;20.734;2024-01-15T09:58:47;99115.69;;;4.32
82778;BMP280;72510;45.128;20.734;2024-01-15T10:08:51;99098.56;;;4.27
82778;BMP280;72510;45.128;20.734;2024-01-15T10:18:52;99106.06;;;4.71
82778;BMP280;72510;45.128;20.734;2024-01-15T10:28:53;99113.13;;;4.98
82778;BMP280;72510;45.128;20.734;2024-01-15T10:38:57;99116.16;;;5.06
82778;BMP280;72510;45.128;20.734;2024-01-15T10:48:58;99095.00;;;5.15
82778;BMP280;72510;45.128;20.734;2024-01-15T10:59:00;99071.78;;;5.29
82778;BMP280;72510;45.128;20.734;2024-01-15T11:09:02;99055.19;;;5.67
82778;BMP280;72510;45.128;20.734;2024-01-15T11:19:05;99028.47;;;5.89
82778;BMP280;72510;45.128;20.734;2024-01-15T11:29:30;99029.34;;;5.56
82778;BMP280;72510;45.128;20.734;2024-01-15T11:39:42;99036.81;;;4.95
82778;BMP280;72510;45.128;20.734;2024-01-15T11:59:54;99018.06;;;4.35
82778;BMP280;72510;45.128;20.734;2024-01-15T12:09:55;99014.22;;;4.36
82778;BMP280;72510;45.128;20.734;2024-01-15T12:19:57;99005.25;;;4.43
82778;BMP280;72510;45.128;20.734;2024-01-15T12:29:59;98996.22;;;4.35
82778;BMP280;72510;45.128;20.734;2024-01-15T12:40:00;98978.81;;;4.28
82778;BMP280;72510;45.128;20.734;2024-01-15T12:50:05;98970.97;;;4.19
82778;BMP280;72510;45.128;20.734;2024-01-15T13:00:09;98951.22;;;4.14
82778;BMP280;72510;45.128;20.734;2024-01-15T13:10:14;98935.00;;;4.07
82778;BMP280;72510;45.128;20.734;2024-01-15T13:20:15;98921.09;;;4.15
82778;BMP280;72510;45.128;20.734;2024-01-15T13:30:17;98921.13;;;4.39
82778;BMP280;72510;45.128;20.734;2024-01-15T13:40:19;98934.34;;;4.54
82778;BMP280;72510;45.128;20.734;2024-01-15T13:50:21;98928.84;;;4.67
82778;BMP280;72510;45.128;20.734;2024-01-15T14:00:22;98955.47;;;4.45
82778;BMP280;72510;45.128;20.734;2024-01-15T14:10:24;98960.16;;;4.08
82778;BMP280;72510;45.128;20.734;2024-01-15T14:20:25;98965.78;;;3.82
82778;BMP280;72510;45.128;20.734;2024-01-15T14:30:27;98958.03;;;3.78
82778;BMP280;72510;45.128;20.734;2024-01-15T14:40:28;98941.25;;;3.76
82778;BMP280;72510;45.128;20.734;2024-01-15T14:50:30;98928.53;;;3.56
82778;BMP280;72510;45.128;20.734;2024-01-15T15:00:31;98938.06;;;3.44
82778;BMP280;72510;45.128;20.734;2024-01-15T15:10:32;98926.81;;;3.44
82778;BMP280;72510;45.128;20.734;2024-01-15T15:20:37;98944.34;;;3.37
82778;BMP280;72510;45.128;20.734;2024-01-15T15:30:42;98953.84;;;3.35
82778;BMP280;72510;45.128;20.734;2024-01-15T15:40:44;98921.84;;;3.27
82778;BMP280;72510;45.128;20.734;2024-01-15T15:50:47;98945.69;;;3.23
82778;BMP280;72510;45.128;20.734;2024-01-15T16:01:01;98948.31;;;3.14
82778;BMP280;72510;45.128;20.734;2024-01-15T16:11:03;98934.25;;;2.99
82778;BMP280;72510;45.128;20.734;2024-01-15T16:21:05;98942.88;;;2.99
82778;BMP280;72510;45.128;20.734;2024-01-15T16:31:06;98934.09;;;2.93
82778;BMP280;72510;45.128;20.734;2024-01-15T16:41:07;98931.75;;;2.86
82778;BMP280;72510;45.128;20.734;2024-01-15T16:51:09;98930.84;;;2.80
82778;BMP280;72510;45.128;20.734;2024-01-15T17:01:11;98951.44;;;2.72
82778;BMP280;72510;45.128;20.734;2024-01-15T17:11:13;98959.63;;;2.65
82778;BMP280;72510;45.128;20.734;2024-01-15T17:21:14;98976.84;;;2.66
82778;BMP280;72510;45.128;20.734;2024-01-15T17:31:16;98967.75;;;2.58
82778;BMP280;72510;45.128;20.734;2024-01-15T17:41:17;98972.53;;;2.50
82778;BMP280;72510;45.128;20.734;2024-01-15T17:51:19;98964.38;;;2.48
82778;BMP280;72510;45.128;20.734;2024-01-15T18:01:21;98971.47;;;2.38
82778;BMP280;72510;45.128;20.734;2024-01-15T18:11:23;98958.00;;;2.27
82778;BMP280;72510;45.128;20.734;2024-01-15T18:21:28;98991.13;;;2.02
82778;BMP280;72510;45.128;20.734;2024-01-15T18:31:29;98978.63;;;1.84
82778;BMP280;72510;45.128;20.734;2024-01-15T18:41:30;98988.75;;;1.73
82778;BMP280;72510;45.128;20.734;2024-01-15T18:51:32;98994.78;;;1.61
82778;BMP280;72510;45.128;20.734;2024-01-15T19:01:33;98993.97;;;1.51
82778;BMP280;72510;45.128;20.734;2024-01-15T19:11:35;99002.78;;;1.44
82778;BMP280;72510;45.128;20.734;2024-01-15T19:21:36;99031.75;;;1.41
82778;BMP280;72510;45.128;20.734;2024-01-15T19:31:38;99048.63;;;1.40
82778;BMP280;72510;45.128;20.734;2024-01-15T19:41:41;99068.56;;;1.37
82778;BMP280;72510;45.128;20.734;2024-01-15T19:51:42;99066.69;;;1.38
82778;BMP280;72510;45.128;20.734;2024-01-15T20:01:46;99072.34;;;1.36
82778;BMP280;72510;45.128;20.734;2024-01-15T20:11:48;99093.22;;;1.40
82778;BMP280;72510;45.128;20.734;2024-01-15T20:21:50;99109.81;;;1.37
82778;BMP280;72510;45.128;20.734;2024-01-15T20:31:52;99139.38;;;1.37
82778;BMP280;72510;45.128;20.734;2024-01-15T20:41:54;99150.19;;;1.39
82778;BMP280;72510;45.128;20.734;2024-01-15T20:52:04;99166.31;;;1.38
82778;BMP280;72510;45.128;20.734;2024-01-15T21:02:05;99159.53;;;1.40
82778;BMP280;72510;45.128;20.734;2024-01-15T21:12:12;99210.31;;;1.34
82778;BMP280;72510;45.128;20.734;2024-01-15T21:22:14;99214.69;;;1.37
82778;BMP280;72510;45.128;20.734;2024-01-15T21:32:19;99229.56;;;1.40
82778;BMP280;72510;45.128;20.734;2024-01-15T21:42:20;99228.53;;;1.37
82778;BMP280;72510;45.128;20.734;2024-01-15T21:52:21;99300.94;;;1.35
82778;BMP280;72510;45.128;20.734;2024-01-15T22:02:22;99270.22;;;1.35
82778;BMP280;72510;45.128;20.734;2024-01-15T22:12:26;99276.47;;;1.38
82778;BMP280;72510;45.128;20.734;2024-01-15T22:22:35;99295.69;;;1.35
82778;BMP280;72510;45.128;20.734;2024-01-15T22:32:40;99327.16;;;1.35
82778;BMP280;72510;45.128;20.734;2024-01-15T22:42:46;99318.56;;;1.34
82778;BMP280;72510;45.128;20.734;2024-01-15T22:52:49;99380.59;;;1.24
82778;BMP280;72510;45.128;20.734;2024-01-15T23:02:53;99398.53;;;1.26
82778;BMP280;72510;45.128;20.734;2024-01-15T23:12:58;99396.19;;;1.31
82778;BMP280;72510;45.128;20.734;2024-01-15T23:22:59;99392.75;;;1.47
82778;BMP280;72510;45.128;20.734;2024-01-15T23:33:02;99398.09;;;1.44
82778;BMP280;72510;45.128;20.734;2024-01-15T23:43:03;99391.44;;;1.39
82778;BMP280;72510;45.128;20.734;2024-01-15T23:53:06;99428.25;;;1.36
